Terminal Aerodrome Forecast
Issued by NWS

Home | Current Version | Previous Version | Text Only | Print | Product List | Glossary Off
Versions: 1 2 3 4 5 6 7 8 9 10 11 12 13 14 15 16 17 18 19 20

000
FTUS43 KTOP 181500 AAB
TAFFOE
TAF AMD
KFOE 181533Z 1816/1912 09007KT 4SM BR OVC005
     FM182000 11009KT P6SM SCT150
     FM190800 13006KT 4SM BR BKN005=

USA.gov is the U.S. government's official web portal to all federal, state and local government web resources and services.